Minnehaha, West Virginia
Current Conditions -  °F | °C
As of 4:15 AM on Sunday 21 Dec 2014 (Local Time) from KHSP Reporting Station
Overcast Overcast  
Wind Chill: 22°   Ceiling: 2000
Heat Index: 29°   Visibility: 7mi
Dew Point: 29°   Wind: 7mph
Humidity: 100%   Direction: 270°W
Pressure: 30.1"   Gusts: NA
Location:  38.2213°N, 80.0565°W
Report Text: KHSP 210915Z AUTO 27006KT 7SM OVC020 M02/M02 A3010 RMK AO2 T10161016
Loading
Personal Weather Stations






























Interactive Weather Map New forecast layout! Learn more

10-Day Weather Forecast

Advertisements
Track Severe Weather on mobile